sensor_id;sensor_type;location;lat;lon;timestamp;P1;durP1;ratioP1;P2;durP2;ratioP2
35909;SDS011;22004;49.120;-0.200;2023-12-20T00:00:53;11.75;;;2.33;;
35909;SDS011;22004;49.120;-0.200;2023-12-20T00:03:18;9.60;;;2.72;;
35909;SDS011;22004;49.120;-0.200;2023-12-20T00:05:44;12.35;;;2.45;;
35909;SDS011;22004;49.120;-0.200;2023-12-20T00:08:09;7.85;;;1.95;;
35909;SDS011;22004;49.120;-0.200;2023-12-20T00:10:34;15.20;;;3.22;;
35909;SDS011;22004;49.120;-0.200;2023-12-20T00:13:00;14.18;;;2.72;;
35909;SDS011;22004;49.120;-0.200;2023-12-20T00:15:25;13.77;;;2.47;;
35909;SDS011;22004;49.120;-0.200;2023-12-20T00:17:50;11.48;;;2.10;;
35909;SDS011;22004;49.120;-0.200;2023-12-20T00:20:15;10.70;;;2.45;;
35909;SDS011;22004;49.120;-0.200;2023-12-20T00:22:41;10.50;;;2.15;;
35909;SDS011;22004;49.120;-0.200;2023-12-20T00:25:06;12.80;;;2.30;;
35909;SDS011;22004;49.120;-0.200;2023-12-20T10:27:08;16.10;;;2.85;;
35909;SDS011;22004;49.120;-0.200;2023-12-20T10:29:34;17.23;;;3.67;;
35909;SDS011;22004;49.120;-0.200;2023-12-20T10:32:05;20.17;;;3.38;;
35909;SDS011;22004;49.120;-0.200;2023-12-20T10:34:49;15.32;;;3.78;;
35909;SDS011;22004;49.120;-0.200;2023-12-20T10:37:16;14.85;;;3.00;;
35909;SDS011;22004;49.120;-0.200;2023-12-20T10:39:42;14.80;;;2.92;;
35909;SDS011;22004;49.120;-0.200;2023-12-20T10:42:11;14.23;;;3.58;;
35909;SDS011;22004;49.120;-0.200;2023-12-20T10:44:38;13.98;;;2.45;;
35909;SDS011;22004;49.120;-0.200;2023-12-20T10:47:04;18.73;;;2.88;;
35909;SDS011;22004;49.120;-0.200;2023-12-20T10:49:30;16.73;;;4.15;;
35909;SDS011;22004;49.120;-0.200;2023-12-20T10:51:59;10.50;;;2.58;;
35909;SDS011;22004;49.120;-0.200;2023-12-20T10:54:27;12.40;;;3.05;;
35909;SDS011;22004;49.120;-0.200;2023-12-20T10:56:52;17.80;;;3.92;;
35909;SDS011;22004;49.120;-0.200;2023-12-20T10:59:19;19.50;;;3.83;;
35909;SDS011;22004;49.120;-0.200;2023-12-20T11:01:47;14.00;;;2.70;;
35909;SDS011;22004;49.120;-0.200;2023-12-20T11:04:15;11.57;;;2.70;;
35909;SDS011;22004;49.120;-0.200;2023-12-20T11:06:49;14.68;;;2.80;;
35909;SDS011;22004;49.120;-0.200;2023-12-20T11:09:25;18.17;;;3.47;;
35909;SDS011;22004;49.120;-0.200;2023-12-20T11:17:09;15.07;;;3.22;;
35909;SDS011;22004;49.120;-0.200;2023-12-20T11:22:32;17.63;;;3.05;;
35909;SDS011;22004;49.120;-0.200;2023-12-20T11:25:03;16.88;;;3.15;;
35909;SDS011;22004;49.120;-0.200;2023-12-20T11:27:33;17.00;;;3.63;;
35909;SDS011;22004;49.120;-0.200;2023-12-20T11:29:59;16.65;;;2.80;;
35909;SDS011;22004;49.120;-0.200;2023-12-20T11:34:54;19.85;;;3.47;;
35909;SDS011;22004;49.120;-0.200;2023-12-20T11:37:21;12.65;;;2.90;;
35909;SDS011;22004;49.120;-0.200;2023-12-20T11:39:56;15.38;;;2.70;;
35909;SDS011;22004;49.120;-0.200;2023-12-20T11:42:26;14.77;;;3.05;;
35909;SDS011;22004;49.120;-0.200;2023-12-20T11:44:52;15.18;;;3.50;;
35909;SDS011;22004;49.120;-0.200;2023-12-20T11:47:18;13.35;;;3.13;;
35909;SDS011;22004;49.120;-0.200;2023-12-20T11:49:46;19.77;;;3.28;;
35909;SDS011;22004;49.120;-0.200;2023-12-20T11:52:12;17.60;;;2.33;;
35909;SDS011;22004;49.120;-0.200;2023-12-20T11:54:38;20.40;;;3.92;;
35909;SDS011;22004;49.120;-0.200;2023-12-20T11:57:03;14.32;;;2.83;;
35909;SDS011;22004;49.120;-0.200;2023-12-20T11:59:29;12.85;;;2.53;;
35909;SDS011;22004;49.120;-0.200;2023-12-20T12:01:56;14.13;;;2.83;;
35909;SDS011;22004;49.120;-0.200;2023-12-20T12:04:25;12.10;;;2.83;;
35909;SDS011;22004;49.120;-0.200;2023-12-20T12:06:51;21.02;;;3.50;;
35909;SDS011;22004;49.120;-0.200;2023-12-20T12:09:16;18.52;;;3.65;;
35909;SDS011;22004;49.120;-0.200;2023-12-20T12:11:42;14.38;;;2.60;;
35909;SDS011;22004;49.120;-0.200;2023-12-20T12:14:08;16.88;;;2.45;;
35909;SDS011;22004;49.120;-0.200;2023-12-20T12:16:33;14.23;;;2.47;;
35909;SDS011;22004;49.120;-0.200;2023-12-20T12:18:59;17.48;;;3.17;;
35909;SDS011;22004;49.120;-0.200;2023-12-20T12:21:25;14.35;;;2.97;;
35909;SDS011;22004;49.120;-0.200;2023-12-20T12:23:51;16.08;;;3.15;;
35909;SDS011;22004;49.120;-0.200;2023-12-20T12:26:16;16.20;;;3.60;;
35909;SDS011;22004;49.120;-0.200;2023-12-20T12:28:42;14.68;;;2.65;;
35909;SDS011;22004;49.120;-0.200;2023-12-20T12:31:07;10.68;;;2.80;;
35909;SDS011;22004;49.120;-0.200;2023-12-20T12:33:37;15.30;;;2.70;;
35909;SDS011;22004;49.120;-0.200;2023-12-20T12:36:03;13.30;;;2.38;;
35909;SDS011;22004;49.120;-0.200;2023-12-20T12:38:30;15.07;;;3.00;;
35909;SDS011;22004;49.120;-0.200;2023-12-20T12:40:55;17.50;;;2.90;;
35909;SDS011;22004;49.120;-0.200;2023-12-20T12:43:21;10.73;;;3.25;;
35909;SDS011;22004;49.120;-0.200;2023-12-20T12:45:48;16.23;;;3.17;;
35909;SDS011;22004;49.120;-0.200;2023-12-20T12:48:13;13.48;;;2.78;;
35909;SDS011;22004;49.120;-0.200;2023-12-20T12:50:39;10.25;;;2.20;;
35909;SDS011;22004;49.120;-0.200;2023-12-20T12:53:04;16.80;;;3.70;;
35909;SDS011;22004;49.120;-0.200;2023-12-20T12:55:30;16.98;;;2.63;;
35909;SDS011;22004;49.120;-0.200;2023-12-20T12:57:55;14.93;;;2.60;;
35909;SDS011;22004;49.120;-0.200;2023-12-20T13:00:21;18.35;;;3.40;;
35909;SDS011;22004;49.120;-0.200;2023-12-20T13:02:46;20.98;;;3.20;;
35909;SDS011;22004;49.120;-0.200;2023-12-20T13:05:12;15.60;;;2.88;;
35909;SDS011;22004;49.120;-0.200;2023-12-20T13:07:37;15.32;;;2.53;;
35909;SDS011;22004;49.120;-0.200;2023-12-20T13:10:04;14.63;;;2.58;;
35909;SDS011;22004;49.120;-0.200;2023-12-20T13:12:30;10.75;;;1.92;;
35909;SDS011;22004;49.120;-0.200;2023-12-20T13:14:57;12.50;;;2.45;;
35909;SDS011;22004;49.120;-0.200;2023-12-20T13:17:22;12.88;;;2.80;;
35909;SDS011;22004;49.120;-0.200;2023-12-20T13:19:47;19.30;;;3.33;;
35909;SDS011;22004;49.120;-0.200;2023-12-20T13:22:14;12.32;;;2.80;;
35909;SDS011;22004;49.120;-0.200;2023-12-20T13:24:40;13.25;;;2.75;;
35909;SDS011;22004;49.120;-0.200;2023-12-20T13:27:05;13.73;;;2.15;;
35909;SDS011;22004;49.120;-0.200;2023-12-20T13:29:30;12.93;;;2.80;;
35909;SDS011;22004;49.120;-0.200;2023-12-20T13:31:56;14.75;;;2.20;;
35909;SDS011;22004;49.120;-0.200;2023-12-20T13:34:22;11.57;;;2.75;;
35909;SDS011;22004;49.120;-0.200;2023-12-20T13:36:48;14.80;;;2.63;;
35909;SDS011;22004;49.120;-0.200;2023-12-20T13:39:15;9.57;;;2.20;;
35909;SDS011;22004;49.120;-0.200;2023-12-20T13:41:42;16.48;;;2.75;;
35909;SDS011;22004;49.120;-0.200;2023-12-20T13:44:07;13.35;;;2.90;;
35909;SDS011;22004;49.120;-0.200;2023-12-20T13:46:33;14.63;;;2.55;;
35909;SDS011;22004;49.120;-0.200;2023-12-20T13:48:58;9.50;;;2.25;;
35909;SDS011;22004;49.120;-0.200;2023-12-20T13:51:24;11.40;;;2.05;;
35909;SDS011;22004;49.120;-0.200;2023-12-20T13:53:50;11.52;;;2.35;;
35909;SDS011;22004;49.120;-0.200;2023-12-20T13:56:15;11.18;;;2.38;;
35909;SDS011;22004;49.120;-0.200;2023-12-20T13:58:41;10.77;;;2.45;;
35909;SDS011;22004;49.120;-0.200;2023-12-20T14:01:11;11.32;;;2.33;;
35909;SDS011;22004;49.120;-0.200;2023-12-20T14:03:36;16.13;;;2.50;;
35909;SDS011;22004;49.120;-0.200;2023-12-20T14:06:02;14.60;;;2.50;;
35909;SDS011;22004;49.120;-0.200;2023-12-20T14:08:27;11.57;;;2.40;;
35909;SDS011;22004;49.120;-0.200;2023-12-20T14:10:53;14.80;;;3.10;;
35909;SDS011;22004;49.120;-0.200;2023-12-20T14:13:18;13.43;;;2.55;;
35909;SDS011;22004;49.120;-0.200;2023-12-20T14:15:44;10.63;;;2.83;;
35909;SDS011;22004;49.120;-0.200;2023-12-20T14:18:09;11.85;;;3.10;;
35909;SDS011;22004;49.120;-0.200;2023-12-20T14:20:35;9.88;;;2.28;;
35909;SDS011;22004;49.120;-0.200;2023-12-20T14:23:01;13.63;;;2.25;;
35909;SDS011;22004;49.120;-0.200;2023-12-20T14:25:27;10.80;;;2.38;;
35909;SDS011;22004;49.120;-0.200;2023-12-20T14:27:52;12.02;;;2.95;;
35909;SDS011;22004;49.120;-0.200;2023-12-20T14:30:18;14.52;;;1.92;;
35909;SDS011;22004;49.120;-0.200;2023-12-20T14:32:43;10.90;;;1.95;;
35909;SDS011;22004;49.120;-0.200;2023-12-20T14:35:08;9.32;;;1.55;;
35909;SDS011;22004;49.120;-0.200;2023-12-20T14:37:34;17.77;;;2.15;;
35909;SDS011;22004;49.120;-0.200;2023-12-20T14:40:03;15.18;;;2.00;;
35909;SDS011;22004;49.120;-0.200;2023-12-20T14:42:30;16.45;;;2.88;;
35909;SDS011;22004;49.120;-0.200;2023-12-20T14:44:57;19.92;;;2.72;;
35909;SDS011;22004;49.120;-0.200;2023-12-20T14:47:23;10.20;;;1.95;;
35909;SDS011;22004;49.120;-0.200;2023-12-20T14:49:50;12.25;;;2.67;;
35909;SDS011;22004;49.120;-0.200;2023-12-20T14:52:17;12.60;;;2.42;;
35909;SDS011;22004;49.120;-0.200;2023-12-20T14:54:43;13.07;;;2.38;;
35909;SDS011;22004;49.120;-0.200;2023-12-20T14:57:09;9.32;;;2.22;;
35909;SDS011;22004;49.120;-0.200;2023-12-20T14:59:34;10.65;;;2.25;;
35909;SDS011;22004;49.120;-0.200;2023-12-20T15:02:00;10.85;;;2.15;;
35909;SDS011;22004;49.120;-0.200;2023-12-20T15:04:25;14.35;;;2.20;;
35909;SDS011;22004;49.120;-0.200;2023-12-20T15:06:54;14.57;;;2.75;;
35909;SDS011;22004;49.120;-0.200;2023-12-20T15:09:19;9.38;;;2.00;;
35909;SDS011;22004;49.120;-0.200;2023-12-20T15:11:45;13.77;;;2.53;;
35909;SDS011;22004;49.120;-0.200;2023-12-20T15:14:11;14.90;;;2.70;;
35909;SDS011;22004;49.120;-0.200;2023-12-20T15:16:36;11.35;;;2.30;;
35909;SDS011;22004;49.120;-0.200;2023-12-20T15:19:01;11.07;;;2.15;;
35909;SDS011;22004;49.120;-0.200;2023-12-20T15:21:28;14.40;;;2.53;;
35909;SDS011;22004;49.120;-0.200;2023-12-20T15:23:58;11.23;;;1.92;;
35909;SDS011;22004;49.120;-0.200;2023-12-20T15:26:39;12.77;;;2.08;;
35909;SDS011;22004;49.120;-0.200;2023-12-20T15:29:05;13.27;;;3.00;;
35909;SDS011;22004;49.120;-0.200;2023-12-20T15:31:31;13.00;;;1.90;;
35909;SDS011;22004;49.120;-0.200;2023-12-20T15:33:57;10.95;;;2.08;;
35909;SDS011;22004;49.120;-0.200;2023-12-20T15:36:23;10.85;;;2.33;;
35909;SDS011;22004;49.120;-0.200;2023-12-20T15:38:49;16.23;;;2.80;;
35909;SDS011;22004;49.120;-0.200;2023-12-20T15:41:18;9.90;;;2.15;;
35909;SDS011;22004;49.120;-0.200;2023-12-20T15:43:44;7.35;;;1.92;;
35909;SDS011;22004;49.120;-0.200;2023-12-20T15:46:10;11.18;;;1.75;;
35909;SDS011;22004;49.120;-0.200;2023-12-20T15:48:35;12.80;;;2.58;;
35909;SDS011;22004;49.120;-0.200;2023-12-20T15:51:04;7.80;;;1.60;;
35909;SDS011;22004;49.120;-0.200;2023-12-20T15:53:33;13.57;;;2.72;;
35909;SDS011;22004;49.120;-0.200;2023-12-20T15:55:59;9.40;;;2.63;;
35909;SDS011;22004;49.120;-0.200;2023-12-20T15:58:25;16.05;;;2.95;;
35909;SDS011;22004;49.120;-0.200;2023-12-20T16:00:51;17.27;;;3.25;;
35909;SDS011;22004;49.120;-0.200;2023-12-20T16:03:17;9.32;;;2.08;;
35909;SDS011;22004;49.120;-0.200;2023-12-20T16:05:43;10.65;;;2.03;;
35909;SDS011;22004;49.120;-0.200;2023-12-20T16:08:08;10.73;;;1.80;;
35909;SDS011;22004;49.120;-0.200;2023-12-20T16:10:34;16.73;;;2.47;;
35909;SDS011;22004;49.120;-0.200;2023-12-20T16:12:59;13.10;;;1.88;;
35909;SDS011;22004;49.120;-0.200;2023-12-20T16:15:24;10.73;;;2.10;;
35909;SDS011;22004;49.120;-0.200;2023-12-20T16:17:49;12.52;;;2.47;;
35909;SDS011;22004;49.120;-0.200;2023-12-20T16:20:15;9.82;;;1.90;;
35909;SDS011;22004;49.120;-0.200;2023-12-20T16:22:40;12.60;;;2.20;;
35909;SDS011;22004;49.120;-0.200;2023-12-20T16:25:06;8.65;;;2.30;;
35909;SDS011;22004;49.120;-0.200;2023-12-20T16:27:32;8.75;;;2.05;;
35909;SDS011;22004;49.120;-0.200;2023-12-20T16:29:58;7.72;;;1.92;;
35909;SDS011;22004;49.120;-0.200;2023-12-20T16:32:24;10.27;;;1.95;;
35909;SDS011;22004;49.120;-0.200;2023-12-20T16:34:50;10.20;;;2.33;;
35909;SDS011;22004;49.120;-0.200;2023-12-20T16:37:16;7.32;;;1.92;;
35909;SDS011;22004;49.120;-0.200;2023-12-20T16:39:41;9.32;;;2.00;;
35909;SDS011;22004;49.120;-0.200;2023-12-20T16:42:06;9.95;;;2.30;;
35909;SDS011;22004;49.120;-0.200;2023-12-20T16:44:32;11.25;;;2.55;;
35909;SDS011;22004;49.120;-0.200;2023-12-20T16:46:57;12.15;;;3.17;;
35909;SDS011;22004;49.120;-0.200;2023-12-20T16:49:23;10.05;;;2.00;;
35909;SDS011;22004;49.120;-0.200;2023-12-20T16:51:48;10.32;;;1.92;;
35909;SDS011;22004;49.120;-0.200;2023-12-20T16:54:13;8.85;;;2.20;;
35909;SDS011;22004;49.120;-0.200;2023-12-20T16:56:39;10.93;;;2.25;;
35909;SDS011;22004;49.120;-0.200;2023-12-20T16:59:05;11.60;;;3.03;;
35909;SDS011;22004;49.120;-0.200;2023-12-20T17:01:30;9.05;;;2.20;;
35909;SDS011;22004;49.120;-0.200;2023-12-20T17:03:56;11.93;;;2.20;;
35909;SDS011;22004;49.120;-0.200;2023-12-20T17:06:21;13.60;;;2.28;;
35909;SDS011;22004;49.120;-0.200;2023-12-20T17:08:48;13.75;;;2.08;;
35909;SDS011;22004;49.120;-0.200;2023-12-20T17:11:15;11.05;;;2.05;;
35909;SDS011;22004;49.120;-0.200;2023-12-20T17:13:41;8.27;;;1.92;;
35909;SDS011;22004;49.120;-0.200;2023-12-20T17:16:07;7.15;;;1.95;;
35909;SDS011;22004;49.120;-0.200;2023-12-20T17:18:32;7.70;;;1.83;;
35909;SDS011;22004;49.120;-0.200;2023-12-20T17:20:58;6.82;;;2.38;;
35909;SDS011;22004;49.120;-0.200;2023-12-20T17:23:23;9.63;;;1.80;;
35909;SDS011;22004;49.120;-0.200;2023-12-20T17:25:48;9.13;;;2.10;;
35909;SDS011;22004;49.120;-0.200;2023-12-20T17:28:14;9.73;;;1.95;;
35909;SDS011;22004;49.120;-0.200;2023-12-20T17:30:39;10.00;;;2.53;;
35909;SDS011;22004;49.120;-0.200;2023-12-20T17:33:04;6.55;;;1.88;;
35909;SDS011;22004;49.120;-0.200;2023-12-20T17:35:30;9.07;;;2.00;;
35909;SDS011;22004;49.120;-0.200;2023-12-20T17:37:55;8.18;;;1.77;;
35909;SDS011;22004;49.120;-0.200;2023-12-20T17:40:21;8.88;;;1.98;;
35909;SDS011;22004;49.120;-0.200;2023-12-20T17:42:46;8.18;;;2.42;;
35909;SDS011;22004;49.120;-0.200;2023-12-20T17:45:11;5.10;;;1.80;;
35909;SDS011;22004;49.120;-0.200;2023-12-20T17:47:37;6.55;;;1.98;;
35909;SDS011;22004;49.120;-0.200;2023-12-20T17:50:03;10.07;;;1.80;;
35909;SDS011;22004;49.120;-0.200;2023-12-20T17:52:29;9.52;;;2.40;;
35909;SDS011;22004;49.120;-0.200;2023-12-20T17:54:54;7.53;;;1.98;;
35909;SDS011;22004;49.120;-0.200;2023-12-20T17:57:20;7.35;;;2.05;;
35909;SDS011;22004;49.120;-0.200;2023-12-20T17:59:48;7.72;;;1.90;;
35909;SDS011;22004;49.120;-0.200;2023-12-20T18:02:13;8.95;;;2.40;;
35909;SDS011;22004;49.120;-0.200;2023-12-20T18:04:38;6.70;;;1.70;;
35909;SDS011;22004;49.120;-0.200;2023-12-20T18:07:04;11.32;;;2.35;;
35909;SDS011;22004;49.120;-0.200;2023-12-20T18:09:29;15.07;;;2.53;;
35909;SDS011;22004;49.120;-0.200;2023-12-20T18:11:55;12.15;;;2.10;;
35909;SDS011;22004;49.120;-0.200;2023-12-20T18:14:21;8.68;;;2.17;;
35909;SDS011;22004;49.120;-0.200;2023-12-20T18:16:48;8.65;;;2.00;;
35909;SDS011;22004;49.120;-0.200;2023-12-20T18:19:13;13.63;;;2.38;;
35909;SDS011;22004;49.120;-0.200;2023-12-20T18:21:39;8.25;;;2.10;;
35909;SDS011;22004;49.120;-0.200;2023-12-20T18:24:04;7.80;;;1.80;;
35909;SDS011;22004;49.120;-0.200;2023-12-20T18:26:30;12.60;;;2.90;;
35909;SDS011;22004;49.120;-0.200;2023-12-20T18:29:00;6.78;;;1.70;;
35909;SDS011;22004;49.120;-0.200;2023-12-20T18:31:27;10.98;;;2.17;;
35909;SDS011;22004;49.120;-0.200;2023-12-20T18:33:52;13.25;;;2.53;;
35909;SDS011;22004;49.120;-0.200;2023-12-20T18:36:17;10.35;;;2.20;;
35909;SDS011;22004;49.120;-0.200;2023-12-20T18:38:44;8.38;;;2.10;;
35909;SDS011;22004;49.120;-0.200;2023-12-20T18:41:10;10.02;;;1.95;;
35909;SDS011;22004;49.120;-0.200;2023-12-20T18:43:39;10.45;;;2.20;;
35909;SDS011;22004;49.120;-0.200;2023-12-20T18:46:05;9.93;;;2.33;;
35909;SDS011;22004;49.120;-0.200;2023-12-20T18:48:30;15.25;;;3.08;;
35909;SDS011;22004;49.120;-0.200;2023-12-20T18:50:55;9.98;;;2.42;;
35909;SDS011;22004;49.120;-0.200;2023-12-20T18:53:21;10.60;;;2.28;;
35909;SDS011;22004;49.120;-0.200;2023-12-20T18:55:46;14.52;;;2.20;;
35909;SDS011;22004;49.120;-0.200;2023-12-20T18:58:12;13.93;;;2.60;;
35909;SDS011;22004;49.120;-0.200;2023-12-20T19:00:39;13.60;;;2.60;;
35909;SDS011;22004;49.120;-0.200;2023-12-20T19:03:04;15.73;;;2.70;;
35909;SDS011;22004;49.120;-0.200;2023-12-20T19:05:30;8.38;;;2.13;;
35909;SDS011;22004;49.120;-0.200;2023-12-20T19:07:55;10.02;;;2.45;;
35909;SDS011;22004;49.120;-0.200;2023-12-20T19:10:20;17.70;;;2.90;;
35909;SDS011;22004;49.120;-0.200;2023-12-20T19:12:46;12.00;;;2.45;;
35909;SDS011;22004;49.120;-0.200;2023-12-20T19:15:12;10.95;;;2.60;;
35909;SDS011;22004;49.120;-0.200;2023-12-20T19:17:37;15.15;;;3.03;;
35909;SDS011;22004;49.120;-0.200;2023-12-20T19:20:02;19.48;;;3.42;;
35909;SDS011;22004;49.120;-0.200;2023-12-20T19:22:29;13.48;;;2.70;;
35909;SDS011;22004;49.120;-0.200;2023-12-20T19:24:56;16.52;;;2.80;;
35909;SDS011;22004;49.120;-0.200;2023-12-20T19:27:24;12.80;;;2.50;;
35909;SDS011;22004;49.120;-0.200;2023-12-20T19:29:49;12.32;;;2.65;;
35909;SDS011;22004;49.120;-0.200;2023-12-20T19:32:15;14.48;;;3.28;;
35909;SDS011;22004;49.120;-0.200;2023-12-20T19:34:40;17.30;;;3.28;;
35909;SDS011;22004;49.120;-0.200;2023-12-20T19:37:08;14.82;;;3.03;;
35909;SDS011;22004;49.120;-0.200;2023-12-20T19:39:33;19.77;;;3.60;;
35909;SDS011;22004;49.120;-0.200;2023-12-20T19:42:00;23.80;;;3.70;;
35909;SDS011;22004;49.120;-0.200;2023-12-20T19:44:25;15.07;;;3.13;;
35909;SDS011;22004;49.120;-0.200;2023-12-20T19:46:50;21.40;;;3.47;;
35909;SDS011;22004;49.120;-0.200;2023-12-20T19:49:16;14.57;;;2.70;;
35909;SDS011;22004;49.120;-0.200;2023-12-20T19:51:41;23.50;;;3.33;;
35909;SDS011;22004;49.120;-0.200;2023-12-20T19:54:07;18.23;;;3.33;;
35909;SDS011;22004;49.120;-0.200;2023-12-20T19:56:32;15.70;;;2.63;;
35909;SDS011;22004;49.120;-0.200;2023-12-20T19:58:58;15.40;;;3.03;;
35909;SDS011;22004;49.120;-0.200;2023-12-20T20:01:23;15.57;;;3.38;;
35909;SDS011;22004;49.120;-0.200;2023-12-20T20:03:49;14.43;;;2.97;;
35909;SDS011;22004;49.120;-0.200;2023-12-20T20:06:14;18.50;;;3.15;;
35909;SDS011;22004;49.120;-0.200;2023-12-20T20:08:39;14.35;;;3.13;;
35909;SDS011;22004;49.120;-0.200;2023-12-20T20:11:05;14.02;;;3.20;;
35909;SDS011;22004;49.120;-0.200;2023-12-20T20:13:30;18.70;;;3.15;;
35909;SDS011;22004;49.120;-0.200;2023-12-20T20:15:55;21.17;;;3.70;;
35909;SDS011;22004;49.120;-0.200;2023-12-20T20:18:21;17.73;;;3.22;;
35909;SDS011;22004;49.120;-0.200;2023-12-20T20:20:46;18.00;;;3.70;;
35909;SDS011;22004;49.120;-0.200;2023-12-20T20:23:12;15.40;;;3.20;;
35909;SDS011;22004;49.120;-0.200;2023-12-20T20:25:37;15.32;;;3.20;;
35909;SDS011;22004;49.120;-0.200;2023-12-20T20:28:02;18.02;;;3.05;;
35909;SDS011;22004;49.120;-0.200;2023-12-20T20:30:28;21.75;;;3.63;;
35909;SDS011;22004;49.120;-0.200;2023-12-20T20:32:53;21.35;;;3.70;;
35909;SDS011;22004;49.120;-0.200;2023-12-20T20:35:18;14.68;;;3.05;;
35909;SDS011;22004;49.120;-0.200;2023-12-20T20:37:45;16.90;;;3.58;;
35909;SDS011;22004;49.120;-0.200;2023-12-20T20:40:11;16.10;;;3.30;;
35909;SDS011;22004;49.120;-0.200;2023-12-20T20:42:39;16.42;;;3.90;;
35909;SDS011;22004;49.120;-0.200;2023-12-20T20:45:04;21.73;;;4.63;;
35909;SDS011;22004;49.120;-0.200;2023-12-20T20:47:30;23.42;;;4.90;;
35909;SDS011;22004;49.120;-0.200;2023-12-20T20:49:55;25.27;;;4.45;;
35909;SDS011;22004;49.120;-0.200;2023-12-20T20:52:21;20.20;;;3.88;;
35909;SDS011;22004;49.120;-0.200;2023-12-20T20:54:46;31.20;;;4.93;;
35909;SDS011;22004;49.120;-0.200;2023-12-20T20:57:12;22.58;;;4.07;;
35909;SDS011;22004;49.120;-0.200;2023-12-20T20:59:37;32.80;;;6.32;;
35909;SDS011;22004;49.120;-0.200;2023-12-20T21:02:06;24.73;;;4.43;;
35909;SDS011;22004;49.120;-0.200;2023-12-20T21:04:32;30.00;;;5.15;;
35909;SDS011;22004;49.120;-0.200;2023-12-20T21:06:57;21.70;;;4.35;;
35909;SDS011;22004;49.120;-0.200;2023-12-20T21:09:23;26.40;;;4.80;;
35909;SDS011;22004;49.120;-0.200;2023-12-20T21:11:48;23.17;;;4.05;;
35909;SDS011;22004;49.120;-0.200;2023-12-20T21:14:13;23.15;;;4.70;;
35909;SDS011;22004;49.120;-0.200;2023-12-20T21:16:39;31.52;;;5.25;;
35909;SDS011;22004;49.120;-0.200;2023-12-20T21:19:05;29.48;;;4.65;;
35909;SDS011;22004;49.120;-0.200;2023-12-20T21:21:30;30.02;;;5.57;;
35909;SDS011;22004;49.120;-0.200;2023-12-20T21:23:57;28.95;;;4.93;;
35909;SDS011;22004;49.120;-0.200;2023-12-20T21:26:22;32.05;;;5.70;;
35909;SDS011;22004;49.120;-0.200;2023-12-20T21:28:48;35.08;;;5.82;;
35909;SDS011;22004;49.120;-0.200;2023-12-20T21:31:13;43.53;;;6.90;;
35909;SDS011;22004;49.120;-0.200;2023-12-20T21:33:38;37.92;;;6.68;;
35909;SDS011;22004;49.120;-0.200;2023-12-20T21:36:05;37.80;;;5.53;;
35909;SDS011;22004;49.120;-0.200;2023-12-20T21:38:31;34.55;;;6.68;;
35909;SDS011;22004;49.120;-0.200;2023-12-20T21:40:56;38.42;;;7.75;;
35909;SDS011;22004;49.120;-0.200;2023-12-20T21:43:22;31.70;;;6.03;;
35909;SDS011;22004;49.120;-0.200;2023-12-20T21:45:47;30.23;;;5.50;;
35909;SDS011;22004;49.120;-0.200;2023-12-20T21:48:13;44.15;;;6.63;;
35909;SDS011;22004;49.120;-0.200;2023-12-20T21:50:38;27.55;;;4.97;;
35909;SDS011;22004;49.120;-0.200;2023-12-20T21:53:04;34.28;;;6.22;;
35909;SDS011;22004;49.120;-0.200;2023-12-20T21:55:34;43.53;;;7.47;;
35909;SDS011;22004;49.120;-0.200;2023-12-20T21:58:00;46.22;;;7.35;;
35909;SDS011;22004;49.120;-0.200;2023-12-20T22:00:26;41.90;;;6.10;;
35909;SDS011;22004;49.120;-0.200;2023-12-20T22:02:52;35.30;;;5.72;;
35909;SDS011;22004;49.120;-0.200;2023-12-20T22:05:17;38.15;;;7.13;;
35909;SDS011;22004;49.120;-0.200;2023-12-20T22:07:42;51.63;;;9.30;;
35909;SDS011;22004;49.120;-0.200;2023-12-20T22:10:08;52.83;;;8.57;;
35909;SDS011;22004;49.120;-0.200;2023-12-20T22:12:33;36.40;;;6.47;;
35909;SDS011;22004;49.120;-0.200;2023-12-20T22:14:59;38.22;;;6.35;;
35909;SDS011;22004;49.120;-0.200;2023-12-20T22:17:25;42.15;;;7.43;;
35909;SDS011;22004;49.120;-0.200;2023-12-20T22:19:50;43.25;;;7.15;;
35909;SDS011;22004;49.120;-0.200;2023-12-20T22:22:15;41.42;;;7.63;;
35909;SDS011;22004;49.120;-0.200;2023-12-20T22:24:41;47.90;;;7.70;;
35909;SDS011;22004;49.120;-0.200;2023-12-20T22:27:07;48.17;;;6.80;;
35909;SDS011;22004;49.120;-0.200;2023-12-20T22:29:33;35.90;;;6.53;;
35909;SDS011;22004;49.120;-0.200;2023-12-20T22:31:59;38.10;;;6.85;;
35909;SDS011;22004;49.120;-0.200;2023-12-20T22:34:24;43.80;;;6.68;;
35909;SDS011;22004;49.120;-0.200;2023-12-20T22:36:49;49.80;;;9.10;;
35909;SDS011;22004;49.120;-0.200;2023-12-20T22:39:15;45.45;;;7.05;;
35909;SDS011;22004;49.120;-0.200;2023-12-20T22:41:41;47.75;;;7.60;;
35909;SDS011;22004;49.120;-0.200;2023-12-20T22:44:07;46.72;;;8.80;;
35909;SDS011;22004;49.120;-0.200;2023-12-20T22:46:33;41.65;;;7.63;;
35909;SDS011;22004;49.120;-0.200;2023-12-20T22:49:00;39.88;;;7.22;;
35909;SDS011;22004;49.120;-0.200;2023-12-20T22:51:25;55.33;;;8.98;;
35909;SDS011;22004;49.120;-0.200;2023-12-20T22:53:50;42.88;;;7.82;;
35909;SDS011;22004;49.120;-0.200;2023-12-20T22:56:18;37.20;;;6.95;;
35909;SDS011;22004;49.120;-0.200;2023-12-20T22:58:43;50.22;;;9.10;;
35909;SDS011;22004;49.120;-0.200;2023-12-20T23:01:08;50.67;;;9.50;;
35909;SDS011;22004;49.120;-0.200;2023-12-20T23:03:34;42.20;;;8.02;;
35909;SDS011;22004;49.120;-0.200;2023-12-20T23:05:59;55.17;;;8.88;;
35909;SDS011;22004;49.120;-0.200;2023-12-20T23:08:24;32.28;;;7.07;;
35909;SDS011;22004;49.120;-0.200;2023-12-20T23:10:50;40.08;;;7.05;;
35909;SDS011;22004;49.120;-0.200;2023-12-20T23:13:15;45.55;;;8.48;;
35909;SDS011;22004;49.120;-0.200;2023-12-20T23:15:41;49.88;;;9.20;;
35909;SDS011;22004;49.120;-0.200;2023-12-20T23:18:07;35.47;;;6.85;;
35909;SDS011;22004;49.120;-0.200;2023-12-20T23:20:32;38.05;;;7.00;;
35909;SDS011;22004;49.120;-0.200;2023-12-20T23:22:59;43.60;;;8.00;;
35909;SDS011;22004;49.120;-0.200;2023-12-20T23:25:24;47.47;;;7.53;;
35909;SDS011;22004;49.120;-0.200;2023-12-20T23:27:50;46.70;;;10.00;;
35909;SDS011;22004;49.120;-0.200;2023-12-20T23:30:17;31.92;;;6.00;;
35909;SDS011;22004;49.120;-0.200;2023-12-20T23:32:43;49.70;;;8.25;;
35909;SDS011;22004;49.120;-0.200;2023-12-20T23:35:08;45.58;;;7.78;;
35909;SDS011;22004;49.120;-0.200;2023-12-20T23:37:33;42.17;;;9.15;;
35909;SDS011;22004;49.120;-0.200;2023-12-20T23:39:59;57.30;;;10.05;;
35909;SDS011;22004;49.120;-0.200;2023-12-20T23:42:24;35.80;;;8.00;;
35909;SDS011;22004;49.120;-0.200;2023-12-20T23:44:50;42.45;;;7.45;;
35909;SDS011;22004;49.120;-0.200;2023-12-20T23:47:15;45.33;;;7.53;;
35909;SDS011;22004;49.120;-0.200;2023-12-20T23:49:40;41.72;;;8.45;;
35909;SDS011;22004;49.120;-0.200;2023-12-20T23:52:05;46.58;;;8.93;;
35909;SDS011;22004;49.120;-0.200;2023-12-20T23:54:31;45.08;;;7.90;;
35909;SDS011;22004;49.120;-0.200;2023-12-20T23:56:56;41.53;;;8.48;;
35909;SDS011;22004;49.120;-0.200;2023-12-20T23:59:21;51.75;;;9.05;;
